sensor_id;sensor_type;location;lat;lon;timestamp;pressure;altitude;pressure_sealevel;temperature;humidity
61568;BME280;47462;59.172;17.196;2022-09-30T00:00:53;100397.84;;;8.36;78.72
61568;BME280;47462;59.172;17.196;2022-09-30T00:03:20;100391.78;;;8.34;78.83
61568;BME280;47462;59.172;17.196;2022-09-30T00:05:45;100392.63;;;8.36;78.88
61568;BME280;47462;59.172;17.196;2022-09-30T00:08:11;100390.91;;;8.35;78.85
61568;BME280;47462;59.172;17.196;2022-09-30T00:10:36;100397.88;;;8.35;78.92
61568;BME280;47462;59.172;17.196;2022-09-30T00:13:02;100398.78;;;8.32;78.90
61568;BME280;47462;59.172;17.196;2022-09-30T00:15:27;100400.50;;;8.33;78.90
61568;BME280;47462;59.172;17.196;2022-09-30T00:17:52;100399.59;;;8.34;79.01
61568;BME280;47462;59.172;17.196;2022-09-30T00:20:18;100395.31;;;8.33;78.94
61568;BME280;47462;59.172;17.196;2022-09-30T00:22:43;100396.22;;;8.31;79.15
61568;BME280;47462;59.172;17.196;2022-09-30T00:25:09;100403.13;;;8.32;78.95
61568;BME280;47462;59.172;17.196;2022-09-30T00:27:34;100409.19;;;8.32;78.94
61568;BME280;47462;59.172;17.196;2022-09-30T00:29:59;100414.38;;;8.32;78.99
61568;BME280;47462;59.172;17.196;2022-09-30T00:32:24;100416.19;;;8.30;79.02
61568;BME280;47462;59.172;17.196;2022-09-30T00:34:50;100418.75;;;8.32;79.00
61568;BME280;47462;59.172;17.196;2022-09-30T00:37:15;100414.47;;;8.29;78.88
61568;BME280;47462;59.172;17.196;2022-09-30T00:39:40;100410.09;;;8.30;79.04
61568;BME280;47462;59.172;17.196;2022-09-30T00:42:08;100405.81;;;8.29;78.92
61568;BME280;47462;59.172;17.196;2022-09-30T00:49:54;100403.28;;;8.26;79.10
61568;BME280;47462;59.172;17.196;2022-09-30T00:52:22;100411.06;;;8.27;79.04
61568;BME280;47462;59.172;17.196;2022-09-30T00:54:48;100411.94;;;8.26;79.17
61568;BME280;47462;59.172;17.196;2022-09-30T00:57:14;100416.28;;;8.26;79.47
61568;BME280;47462;59.172;17.196;2022-09-30T00:59:40;100415.38;;;8.27;79.22
61568;BME280;47462;59.172;17.196;2022-09-30T01:02:07;100424.94;;;8.26;79.48
61568;BME280;47462;59.172;17.196;2022-09-30T01:04:34;100424.94;;;8.26;79.27
61568;BME280;47462;59.172;17.196;2022-09-30T01:07:01;100428.38;;;8.27;79.33
61568;BME280;47462;59.172;17.196;2022-09-30T01:09:27;100428.38;;;8.27;79.72
61568;BME280;47462;59.172;17.196;2022-09-30T01:11:52;100426.69;;;8.26;79.74
61568;BME280;47462;59.172;17.196;2022-09-30T01:14:22;100421.44;;;8.27;79.42
61568;BME280;47462;59.172;17.196;2022-09-30T01:16:58;100425.78;;;8.27;79.35
61568;BME280;47462;59.172;17.196;2022-09-30T01:21:59;100421.56;;;8.23;79.51
61568;BME280;47462;59.172;17.196;2022-09-30T01:27:04;100427.69;;;8.20;79.72
61568;BME280;47462;59.172;17.196;2022-09-30T01:29:43;100432.00;;;8.21;79.63
61568;BME280;47462;59.172;17.196;2022-09-30T01:32:23;100430.28;;;8.20;79.76
61568;BME280;47462;59.172;17.196;2022-09-30T01:34:55;100429.47;;;8.18;79.88
61568;BME280;47462;59.172;17.196;2022-09-30T01:42:49;100429.53;;;8.15;79.73
61568;BME280;47462;59.172;17.196;2022-09-30T01:45:19;100432.19;;;8.13;79.67
61568;BME280;47462;59.172;17.196;2022-09-30T01:55:49;100435.69;;;8.11;80.06
61568;BME280;47462;59.172;17.196;2022-09-30T02:00:52;100446.09;;;8.11;79.95
61568;BME280;47462;59.172;17.196;2022-09-30T02:03:21;100445.22;;;8.12;79.85
61568;BME280;47462;59.172;17.196;2022-09-30T02:06:02;100442.59;;;8.12;79.86
61568;BME280;47462;59.172;17.196;2022-09-30T02:08:30;100447.81;;;8.12;79.80
61568;BME280;47462;59.172;17.196;2022-09-30T02:11:01;100452.19;;;8.08;79.92
61568;BME280;47462;59.172;17.196;2022-09-30T02:13:29;100447.88;;;8.09;80.06
61568;BME280;47462;59.172;17.196;2022-09-30T02:15:58;100444.41;;;8.08;80.07
61568;BME280;47462;59.172;17.196;2022-09-30T02:18:27;100440.97;;;8.08;80.19
61568;BME280;47462;59.172;17.196;2022-09-30T02:20:55;100442.66;;;8.10;80.11
61568;BME280;47462;59.172;17.196;2022-09-30T02:23:23;100439.16;;;8.10;80.14
61568;BME280;47462;59.172;17.196;2022-09-30T02:25:53;100445.28;;;8.09;80.06
61568;BME280;47462;59.172;17.196;2022-09-30T02:28:21;100444.41;;;8.08;80.30
61568;BME280;47462;59.172;17.196;2022-09-30T02:30:48;100442.69;;;8.09;80.24
61568;BME280;47462;59.172;17.196;2022-09-30T02:33:16;100442.69;;;8.09;80.34
61568;BME280;47462;59.172;17.196;2022-09-30T02:35:45;100450.47;;;8.09;80.31
61568;BME280;47462;59.172;17.196;2022-09-30T02:38:12;100444.38;;;8.10;80.37
61568;BME280;47462;59.172;17.196;2022-09-30T02:40:41;100456.56;;;8.08;80.52
61568;BME280;47462;59.172;17.196;2022-09-30T02:43:08;100441.81;;;8.08;80.46
61568;BME280;47462;59.172;17.196;2022-09-30T02:45:38;100444.31;;;8.11;80.46
61568;BME280;47462;59.172;17.196;2022-09-30T02:48:14;100446.94;;;8.11;80.56
61568;BME280;47462;59.172;17.196;2022-09-30T02:56:02;100453.06;;;8.09;80.62
61568;BME280;47462;59.172;17.196;2022-09-30T02:58:32;100463.50;;;8.07;80.54
61568;BME280;47462;59.172;17.196;2022-09-30T03:01:00;100458.28;;;8.09;80.66
61568;BME280;47462;59.172;17.196;2022-09-30T03:03:27;100460.09;;;8.03;80.85
61568;BME280;47462;59.172;17.196;2022-09-30T03:05:54;100451.41;;;8.04;80.86
61568;BME280;47462;59.172;17.196;2022-09-30T03:08:19;100449.63;;;8.07;80.82
61568;BME280;47462;59.172;17.196;2022-09-30T03:10:46;100458.31;;;8.07;80.84
61568;BME280;47462;59.172;17.196;2022-09-30T03:13:25;100452.16;;;8.10;80.85
61568;BME280;47462;59.172;17.196;2022-09-30T03:16:45;100456.50;;;8.09;80.62
61568;BME280;47462;59.172;17.196;2022-09-30T03:18:44;100453.91;;;8.09;80.72
61568;BME280;47462;59.172;17.196;2022-09-30T03:21:33;100453.06;;;8.09;80.71
61568;BME280;47462;59.172;17.196;2022-09-30T03:26:51;100453.94;;;8.08;80.88
61568;BME280;47462;59.172;17.196;2022-09-30T03:31:59;100454.78;;;8.08;81.04
61568;BME280;47462;59.172;17.196;2022-09-30T03:34:33;100453.94;;;8.08;80.81
61568;BME280;47462;59.172;17.196;2022-09-30T03:37:15;100465.16;;;8.10;81.18
61568;BME280;47462;59.172;17.196;2022-09-30T03:39:53;100466.00;;;8.12;80.72
61568;BME280;47462;59.172;17.196;2022-09-30T03:42:25;100464.28;;;8.11;80.57
61568;BME280;47462;59.172;17.196;2022-09-30T03:44:55;100466.03;;;8.10;80.61
61568;BME280;47462;59.172;17.196;2022-09-30T03:47:24;100466.13;;;8.06;80.75
61568;BME280;47462;59.172;17.196;2022-09-30T03:49:52;100470.50;;;8.03;80.89
61568;BME280;47462;59.172;17.196;2022-09-30T03:52:19;100474.03;;;8.01;80.58
61568;BME280;47462;59.172;17.196;2022-09-30T03:54:48;100475.72;;;8.02;80.91
61568;BME280;47462;59.172;17.196;2022-09-30T03:57:14;100474.97;;;7.97;80.83
61568;BME280;47462;59.172;17.196;2022-09-30T03:59:40;100479.28;;;7.98;81.01
61568;BME280;47462;59.172;17.196;2022-09-30T04:02:05;100474.91;;;8.00;81.00
61568;BME280;47462;59.172;17.196;2022-09-30T04:04:34;100477.50;;;8.00;80.99
61568;BME280;47462;59.172;17.196;2022-09-30T04:06:59;100478.31;;;8.02;81.22
61568;BME280;47462;59.172;17.196;2022-09-30T04:09:24;100481.81;;;8.01;81.10
61568;BME280;47462;59.172;17.196;2022-09-30T04:11:51;100481.00;;;7.99;81.18
61568;BME280;47462;59.172;17.196;2022-09-30T04:14:16;100488.78;;;7.99;80.88
61568;BME280;47462;59.172;17.196;2022-09-30T04:16:41;100495.75;;;7.97;81.08
61568;BME280;47462;59.172;17.196;2022-09-30T04:19:07;100493.19;;;7.95;81.13
61568;BME280;47462;59.172;17.196;2022-09-30T04:21:32;100498.47;;;7.92;81.12
61568;BME280;47462;59.172;17.196;2022-09-30T04:23:57;100502.78;;;7.93;81.25
61568;BME280;47462;59.172;17.196;2022-09-30T04:26:22;100500.16;;;7.95;81.01
61568;BME280;47462;59.172;17.196;2022-09-30T04:28:48;100506.22;;;7.94;81.06
61568;BME280;47462;59.172;17.196;2022-09-30T04:31:13;100508.78;;;7.95;81.15
61568;BME280;47462;59.172;17.196;2022-09-30T04:33:41;100509.66;;;7.94;81.11
61568;BME280;47462;59.172;17.196;2022-09-30T04:36:06;100522.66;;;7.94;81.15
61568;BME280;47462;59.172;17.196;2022-09-30T04:38:32;100533.03;;;7.96;81.01
61568;BME280;47462;59.172;17.196;2022-09-30T04:41:00;100527.81;;;7.96;80.89
61568;BME280;47462;59.172;17.196;2022-09-30T04:43:25;100538.25;;;7.94;81.19
61568;BME280;47462;59.172;17.196;2022-09-30T04:45:51;100533.97;;;7.93;80.95
61568;BME280;47462;59.172;17.196;2022-09-30T04:48:17;100540.03;;;7.92;81.09
61568;BME280;47462;59.172;17.196;2022-09-30T04:50:42;100537.44;;;7.92;81.17
61568;BME280;47462;59.172;17.196;2022-09-30T04:53:08;100535.72;;;7.91;80.95
61568;BME280;47462;59.172;17.196;2022-09-30T04:55:35;100539.22;;;7.90;80.99
61568;BME280;47462;59.172;17.196;2022-09-30T04:58:00;100540.03;;;7.92;81.21
61568;BME280;47462;59.172;17.196;2022-09-30T05:00:25;100542.66;;;7.91;81.06
61568;BME280;47462;59.172;17.196;2022-09-30T05:02:51;100537.56;;;7.86;81.18
61568;BME280;47462;59.172;17.196;2022-09-30T05:05:16;100544.41;;;7.89;81.28
61568;BME280;47462;59.172;17.196;2022-09-30T05:07:41;100541.00;;;7.86;80.94
61568;BME280;47462;59.172;17.196;2022-09-30T05:10:07;100536.72;;;7.84;81.14
61568;BME280;47462;59.172;17.196;2022-09-30T05:12:33;100546.22;;;7.86;80.78
61568;BME280;47462;59.172;17.196;2022-09-30T05:14:58;100542.75;;;7.86;80.86
61568;BME280;47462;59.172;17.196;2022-09-30T05:17:24;100550.53;;;7.88;80.97
61568;BME280;47462;59.172;17.196;2022-09-30T05:19:49;100561.72;;;7.90;81.18
61568;BME280;47462;59.172;17.196;2022-09-30T05:22:14;100555.69;;;7.89;81.19
61568;BME280;47462;59.172;17.196;2022-09-30T05:24:39;100555.66;;;7.91;81.21
61568;BME280;47462;59.172;17.196;2022-09-30T05:27:05;100553.03;;;7.92;81.02
61568;BME280;47462;59.172;17.196;2022-09-30T05:29:31;100557.34;;;7.93;81.10
61568;BME280;47462;59.172;17.196;2022-09-30T05:31:56;100570.34;;;7.93;80.94
61568;BME280;47462;59.172;17.196;2022-09-30T05:34:22;100560.75;;;7.95;81.17
61568;BME280;47462;59.172;17.196;2022-09-30T05:36:47;100560.75;;;7.95;81.10
61568;BME280;47462;59.172;17.196;2022-09-30T05:39:12;100565.06;;;7.98;81.23
61568;BME280;47462;59.172;17.196;2022-09-30T05:41:37;100561.53;;;7.99;81.04
61568;BME280;47462;59.172;17.196;2022-09-30T05:44:03;100561.47;;;8.02;80.92
61568;BME280;47462;59.172;17.196;2022-09-30T05:46:29;100563.19;;;8.04;81.09
61568;BME280;47462;59.172;17.196;2022-09-30T05:48:54;100571.00;;;8.03;81.21
61568;BME280;47462;59.172;17.196;2022-09-30T05:51:19;100576.22;;;8.01;81.26
61568;BME280;47462;59.172;17.196;2022-09-30T05:53:45;100582.25;;;8.03;81.03
61568;BME280;47462;59.172;17.196;2022-09-30T05:56:10;100578.78;;;8.04;81.22
61568;BME280;47462;59.172;17.196;2022-09-30T05:58:35;100583.03;;;8.09;81.11
61568;BME280;47462;59.172;17.196;2022-09-30T06:01:09;100588.16;;;8.12;80.84
61568;BME280;47462;59.172;17.196;2022-09-30T06:03:35;100587.22;;;8.14;81.02
61568;BME280;47462;59.172;17.196;2022-09-30T06:06:00;100583.72;;;8.17;80.85
61568;BME280;47462;59.172;17.196;2022-09-30T06:08:26;100582.78;;;8.21;80.78
61568;BME280;47462;59.172;17.196;2022-09-30T06:10:51;100584.41;;;8.25;80.87
61568;BME280;47462;59.172;17.196;2022-09-30T06:13:16;100584.38;;;8.27;80.72
61568;BME280;47462;59.172;17.196;2022-09-30T06:15:42;100587.81;;;8.29;80.93
61568;BME280;47462;59.172;17.196;2022-09-30T06:18:08;100586.00;;;8.32;80.98
61568;BME280;47462;59.172;17.196;2022-09-30T06:20:34;100591.06;;;8.38;80.72
61568;BME280;47462;59.172;17.196;2022-09-30T06:22:59;100594.44;;;8.44;80.63
61568;BME280;47462;59.172;17.196;2022-09-30T06:25:25;100589.16;;;8.47;80.58
61568;BME280;47462;59.172;17.196;2022-09-30T06:27:50;100601.22;;;8.51;80.68
61568;BME280;47462;59.172;17.196;2022-09-30T06:30:16;100605.56;;;8.52;80.45
61568;BME280;47462;59.172;17.196;2022-09-30T06:32:41;100604.63;;;8.53;80.55
61568;BME280;47462;59.172;17.196;2022-09-30T06:35:06;100607.09;;;8.61;80.55
61568;BME280;47462;59.172;17.196;2022-09-30T06:37:32;100613.19;;;8.60;80.32
61568;BME280;47462;59.172;17.196;2022-09-30T06:39:58;100607.16;;;8.57;80.61
61568;BME280;47462;59.172;17.196;2022-09-30T06:42:23;100614.00;;;8.62;80.60
61568;BME280;47462;59.172;17.196;2022-09-30T06:44:48;100614.78;;;8.67;80.61
61568;BME280;47462;59.172;17.196;2022-09-30T06:47:15;100611.13;;;8.74;80.39
61568;BME280;47462;59.172;17.196;2022-09-30T06:49:41;100612.66;;;8.83;80.12
61568;BME280;47462;59.172;17.196;2022-09-30T06:52:07;100608.16;;;8.89;79.89
61568;BME280;47462;59.172;17.196;2022-09-30T06:54:33;100614.16;;;8.93;80.00
61568;BME280;47462;59.172;17.196;2022-09-30T06:56:58;100614.00;;;9.01;79.90
61568;BME280;47462;59.172;17.196;2022-09-30T06:59:23;100619.13;;;9.04;79.94
61568;BME280;47462;59.172;17.196;2022-09-30T07:01:49;100625.91;;;9.09;79.69
61568;BME280;47462;59.172;17.196;2022-09-30T07:04:15;100611.94;;;9.14;79.69
61568;BME280;47462;59.172;17.196;2022-09-30T07:06:40;100623.09;;;9.19;79.93
61568;BME280;47462;59.172;17.196;2022-09-30T07:09:06;100626.56;;;9.19;79.91
61568;BME280;47462;59.172;17.196;2022-09-30T07:11:31;100620.31;;;9.26;79.71
61568;BME280;47462;59.172;17.196;2022-09-30T07:13:57;100622.75;;;9.34;79.48
61568;BME280;47462;59.172;17.196;2022-09-30T07:16:22;100624.34;;;9.38;79.39
61568;BME280;47462;59.172;17.196;2022-09-30T07:18:49;100620.78;;;9.42;79.45
61568;BME280;47462;59.172;17.196;2022-09-30T07:21:15;100629.28;;;9.49;79.37
61568;BME280;47462;59.172;17.196;2022-09-30T07:23:41;100623.06;;;9.55;79.17
61568;BME280;47462;59.172;17.196;2022-09-30T07:26:15;100634.13;;;9.63;78.68
61568;BME280;47462;59.172;17.196;2022-09-30T07:28:41;100631.47;;;9.66;78.83
61568;BME280;47462;59.172;17.196;2022-09-30T07:31:09;100637.69;;;9.60;78.76
61568;BME280;47462;59.172;17.196;2022-09-30T07:33:36;100630.78;;;9.59;78.80
61568;BME280;47462;59.172;17.196;2022-09-30T07:36:02;100638.38;;;9.67;78.47
61568;BME280;47462;59.172;17.196;2022-09-30T07:38:31;100482.47;;;8.86;78.45
61568;BME280;47462;59.172;17.196;2022-09-30T07:41:30;100632.78;;;9.82;78.29
61568;BME280;47462;59.172;17.196;2022-09-30T07:43:51;100630.00;;;9.89;77.97
61568;BME280;47462;59.172;17.196;2022-09-30T07:46:18;100633.63;;;9.83;78.05
61568;BME280;47462;59.172;17.196;2022-09-30T07:48:45;100631.13;;;9.78;77.84
61568;BME280;47462;59.172;17.196;2022-09-30T07:53:42;100625.38;;;10.00;77.11
61568;BME280;47462;59.172;17.196;2022-09-30T07:56:07;100619.19;;;10.03;76.93
61568;BME280;47462;59.172;17.196;2022-09-30T07:58:33;100628.19;;;9.92;76.73
61568;BME280;47462;59.172;17.196;2022-09-30T08:00:59;100636.94;;;9.90;76.73
61568;BME280;47462;59.172;17.196;2022-09-30T08:03:24;100637.59;;;9.96;76.43
61568;BME280;47462;59.172;17.196;2022-09-30T08:05:50;100635.09;;;9.93;75.02
61568;BME280;47462;59.172;17.196;2022-09-30T08:08:15;100641.44;;;9.83;75.27
61568;BME280;47462;59.172;17.196;2022-09-30T08:10:41;100642.16;;;9.90;75.06
61568;BME280;47462;59.172;17.196;2022-09-30T08:13:06;100642.69;;;10.01;74.76
61568;BME280;47462;59.172;17.196;2022-09-30T08:15:32;100642.63;;;10.04;74.69
61568;BME280;47462;59.172;17.196;2022-09-30T08:17:57;100648.75;;;10.03;74.77
61568;BME280;47462;59.172;17.196;2022-09-30T08:20:23;100642.44;;;10.10;74.52
61568;BME280;47462;59.172;17.196;2022-09-30T08:22:51;100650.94;;;10.18;74.26
61568;BME280;47462;59.172;17.196;2022-09-30T08:25:17;100637.31;;;10.07;74.22
61568;BME280;47462;59.172;17.196;2022-09-30T08:27:42;100645.66;;;10.20;73.94
61568;BME280;47462;59.172;17.196;2022-09-30T08:30:07;100653.31;;;10.26;73.57
61568;BME280;47462;59.172;17.196;2022-09-30T08:32:33;100651.25;;;10.39;73.23
61568;BME280;47462;59.172;17.196;2022-09-30T08:34:58;100651.31;;;10.36;72.88
61568;BME280;47462;59.172;17.196;2022-09-30T08:37:23;100652.03;;;10.41;72.88
61568;BME280;47462;59.172;17.196;2022-09-30T08:39:49;100659.16;;;10.36;72.94
61568;BME280;47462;59.172;17.196;2022-09-30T08:44:44;100660.50;;;10.49;72.68
61568;BME280;47462;59.172;17.196;2022-09-30T08:52:39;100654.19;;;10.58;71.56
61568;BME280;47462;59.172;17.196;2022-09-30T08:55:05;100663.38;;;10.70;71.43
61568;BME280;47462;59.172;17.196;2022-09-30T08:57:38;100656.25;;;10.77;70.94
61568;BME280;47462;59.172;17.196;2022-09-30T09:00:05;100657.50;;;10.92;70.86
61568;BME280;47462;59.172;17.196;2022-09-30T09:02:44;100665.72;;;11.07;70.84
61568;BME280;47462;59.172;17.196;2022-09-30T09:05:14;100661.22;;;11.13;70.47
61568;BME280;47462;59.172;17.196;2022-09-30T09:20:22;100670.16;;;11.59;68.85
61568;BME280;47462;59.172;17.196;2022-09-30T09:22:49;100665.69;;;11.63;69.05
61568;BME280;47462;59.172;17.196;2022-09-30T09:25:16;100661.94;;;11.45;68.75
61568;BME280;47462;59.172;17.196;2022-09-30T09:27:58;100666.13;;;11.50;68.95
61568;BME280;47462;59.172;17.196;2022-09-30T09:30:25;100656.81;;;11.67;68.67
61568;BME280;47462;59.172;17.196;2022-09-30T09:32:52;100648.66;;;11.76;68.53
61568;BME280;47462;59.172;17.196;2022-09-30T09:38:12;100648.16;;;11.91;68.13
61568;BME280;47462;59.172;17.196;2022-09-30T09:48:41;100660.56;;;11.85;68.15
61568;BME280;47462;59.172;17.196;2022-09-30T09:53:44;100671.63;;;11.68;68.80
61568;BME280;47462;59.172;17.196;2022-09-30T09:56:15;100676.63;;;11.74;68.43
61568;BME280;47462;59.172;17.196;2022-09-30T09:59:03;100671.16;;;11.82;68.20
61568;BME280;47462;59.172;17.196;2022-09-30T10:01:32;100665.56;;;11.92;67.77
61568;BME280;47462;59.172;17.196;2022-09-30T10:09:21;100675.03;;;11.97;66.87
61568;BME280;47462;59.172;17.196;2022-09-30T10:11:47;100678.72;;;11.89;66.68
61568;BME280;47462;59.172;17.196;2022-09-30T10:14:15;100679.38;;;11.98;66.49
61568;BME280;47462;59.172;17.196;2022-09-30T10:16:41;100683.66;;;11.99;66.31
61568;BME280;47462;59.172;17.196;2022-09-30T10:19:20;100681.06;;;11.99;66.36
61568;BME280;47462;59.172;17.196;2022-09-30T10:21:47;100676.94;;;11.91;66.57
61568;BME280;47462;59.172;17.196;2022-09-30T10:24:19;100688.22;;;11.93;66.55
61568;BME280;47462;59.172;17.196;2022-09-30T10:26:50;100692.59;;;11.93;66.88
61568;BME280;47462;59.172;17.196;2022-09-30T10:29:26;100678.66;;;11.92;66.83
61568;BME280;47462;59.172;17.196;2022-09-30T10:31:52;100680.38;;;11.93;66.82
61568;BME280;47462;59.172;17.196;2022-09-30T10:36:46;100672.66;;;11.89;66.57
61568;BME280;47462;59.172;17.196;2022-09-30T10:39:31;100671.63;;;11.94;66.50
61568;BME280;47462;59.172;17.196;2022-09-30T10:42:02;100670.47;;;12.02;66.55
61568;BME280;47462;59.172;17.196;2022-09-30T10:44:31;100673.69;;;12.10;66.45
61568;BME280;47462;59.172;17.196;2022-09-30T10:47:01;100678.16;;;12.06;66.16
61568;BME280;47462;59.172;17.196;2022-09-30T10:49:35;100678.09;;;12.08;66.05
61568;BME280;47462;59.172;17.196;2022-09-30T10:52:01;100670.44;;;12.03;65.85
61568;BME280;47462;59.172;17.196;2022-09-30T10:54:34;100665.03;;;12.08;65.38
61568;BME280;47462;59.172;17.196;2022-09-30T10:57:00;100663.81;;;12.18;65.16
61568;BME280;47462;59.172;17.196;2022-09-30T11:01:59;100665.06;;;12.31;64.26
61568;BME280;47462;59.172;17.196;2022-09-30T11:04:33;100661.53;;;12.32;63.96
61568;BME280;47462;59.172;17.196;2022-09-30T11:07:19;100656.06;;;12.39;63.86
61568;BME280;47462;59.172;17.196;2022-09-30T11:15:10;100661.19;;;12.42;62.42
61568;BME280;47462;59.172;17.196;2022-09-30T11:22:59;100657.88;;;12.84;61.69
61568;BME280;47462;59.172;17.196;2022-09-30T11:25:31;100652.38;;;12.90;61.31
61568;BME280;47462;59.172;17.196;2022-09-30T11:41:20;100655.31;;;13.05;61.20
61568;BME280;47462;59.172;17.196;2022-09-30T11:49:26;100664.13;;;13.24;61.14
61568;BME280;47462;59.172;17.196;2022-09-30T11:54:57;100663.34;;;13.22;60.33
61568;BME280;47462;59.172;17.196;2022-09-30T11:57:30;100663.22;;;13.25;60.52
61568;BME280;47462;59.172;17.196;2022-09-30T12:00:15;100662.75;;;13.37;60.54
61568;BME280;47462;59.172;17.196;2022-09-30T12:02:42;100652.53;;;13.52;60.33
61568;BME280;47462;59.172;17.196;2022-09-30T12:05:10;100658.47;;;13.57;60.26
61568;BME280;47462;59.172;17.196;2022-09-30T12:10:17;100674.19;;;13.57;60.32
61568;BME280;47462;59.172;17.196;2022-09-30T12:12:45;100668.16;;;13.55;60.37
61568;BME280;47462;59.172;17.196;2022-09-30T12:15:14;100654.25;;;13.53;60.24
61568;BME280;47462;59.172;17.196;2022-09-30T12:17:42;100666.66;;;13.49;60.53
61568;BME280;47462;59.172;17.196;2022-09-30T12:20:14;100670.06;;;13.51;60.57
61568;BME280;47462;59.172;17.196;2022-09-30T12:22:43;100670.13;;;13.50;60.76
61568;BME280;47462;59.172;17.196;2022-09-30T12:25:12;100669.41;;;13.46;60.98
61568;BME280;47462;59.172;17.196;2022-09-30T12:27:41;100670.97;;;13.50;60.89
61568;BME280;47462;59.172;17.196;2022-09-30T12:30:11;100673.66;;;13.49;60.68
61568;BME280;47462;59.172;17.196;2022-09-30T12:35:23;100666.72;;;13.68;60.12
61568;BME280;47462;59.172;17.196;2022-09-30T12:37:57;100662.88;;;13.77;59.83
61568;BME280;47462;59.172;17.196;2022-09-30T12:40:40;100659.91;;;13.85;59.82
61568;BME280;47462;59.172;17.196;2022-09-30T12:48:18;100658.53;;;13.76;59.73
61568;BME280;47462;59.172;17.196;2022-09-30T12:50:51;100651.75;;;13.70;60.00
61568;BME280;47462;59.172;17.196;2022-09-30T12:53:28;100652.56;;;13.72;59.92
61568;BME280;47462;59.172;17.196;2022-09-30T12:56:01;100649.00;;;13.73;59.69
61568;BME280;47462;59.172;17.196;2022-09-30T12:58:30;100655.72;;;13.60;58.71
61568;BME280;47462;59.172;17.196;2022-09-30T13:03:24;100650.66;;;13.55;59.05
61568;BME280;47462;59.172;17.196;2022-09-30T13:05:51;100656.88;;;13.53;58.91
61568;BME280;47462;59.172;17.196;2022-09-30T13:10:43;100649.09;;;13.51;59.19
61568;BME280;47462;59.172;17.196;2022-09-30T13:25:58;100632.31;;;18.03;48.51
61568;BME280;47462;59.172;17.196;2022-09-30T13:30:49;100627.97;;;17.57;48.10
61568;BME280;47462;59.172;17.196;2022-09-30T13:33:41;100641.97;;;16.65;50.43
61568;BME280;47462;59.172;17.196;2022-09-30T13:36:30;100633.53;;;15.93;52.23
61568;BME280;47462;59.172;17.196;2022-09-30T13:39:16;100643.63;;;14.94;54.65
61568;BME280;47462;59.172;17.196;2022-09-30T13:41:41;100643.28;;;14.44;56.47
61568;BME280;47462;59.172;17.196;2022-09-30T13:44:15;100634.69;;;14.22;57.02
61568;BME280;47462;59.172;17.196;2022-09-30T13:46:47;100632.28;;;14.74;55.98
61568;BME280;47462;59.172;17.196;2022-09-30T13:49:15;100631.00;;;14.83;55.21
61568;BME280;47462;59.172;17.196;2022-09-30T13:51:43;100632.56;;;14.49;56.15
61568;BME280;47462;59.172;17.196;2022-09-30T13:54:26;100621.91;;;14.14;57.03
61568;BME280;47462;59.172;17.196;2022-09-30T13:56:56;100616.22;;;14.04;57.38
61568;BME280;47462;59.172;17.196;2022-09-30T14:01:53;100617.91;;;14.05;57.37
61568;BME280;47462;59.172;17.196;2022-09-30T14:12:26;100621.28;;;14.28;57.48
61568;BME280;47462;59.172;17.196;2022-09-30T14:15:17;100622.53;;;15.14;55.38
61568;BME280;47462;59.172;17.196;2022-09-30T14:23:11;100622.56;;;14.57;56.73
61568;BME280;47462;59.172;17.196;2022-09-30T14:25:37;100469.78;;;13.14;58.12
61568;BME280;47462;59.172;17.196;2022-09-30T14:28:09;100623.94;;;13.68;59.10
61568;BME280;47462;59.172;17.196;2022-09-30T14:30:38;100639.44;;;13.52;59.59
61568;BME280;47462;59.172;17.196;2022-09-30T14:33:11;100631.38;;;13.36;59.91
61568;BME280;47462;59.172;17.196;2022-09-30T14:35:41;100626.66;;;13.22;60.36
61568;BME280;47462;59.172;17.196;2022-09-30T14:40:33;100625.81;;;12.99;60.62
61568;BME280;47462;59.172;17.196;2022-09-30T14:43:00;100623.63;;;12.89;61.01
61568;BME280;47462;59.172;17.196;2022-09-30T14:45:27;100624.84;;;12.80;61.63
61568;BME280;47462;59.172;17.196;2022-09-30T14:47:54;100639.84;;;12.76;62.09
61568;BME280;47462;59.172;17.196;2022-09-30T14:50:23;100615.72;;;12.68;62.44
61568;BME280;47462;59.172;17.196;2022-09-30T14:52:50;100623.88;;;12.60;62.72
61568;BME280;47462;59.172;17.196;2022-09-30T14:57:56;100616.81;;;12.62;62.79
61568;BME280;47462;59.172;17.196;2022-09-30T15:00:39;100612.47;;;12.61;63.08
61568;BME280;47462;59.172;17.196;2022-09-30T15:03:08;100616.38;;;12.51;63.26
61568;BME280;47462;59.172;17.196;2022-09-30T15:05:34;100625.34;;;12.44;63.59
61568;BME280;47462;59.172;17.196;2022-09-30T15:08:00;100468.56;;;11.45;63.65
61568;BME280;47462;59.172;17.196;2022-09-30T15:10:25;100612.75;;;12.31;64.22
61568;BME280;47462;59.172;17.196;2022-09-30T15:12:51;100603.06;;;12.34;64.22
61568;BME280;47462;59.172;17.196;2022-09-30T15:15:31;100609.00;;;12.37;64.37
61568;BME280;47462;59.172;17.196;2022-09-30T15:17:57;100605.50;;;12.38;64.70
61568;BME280;47462;59.172;17.196;2022-09-30T15:22:47;100607.16;;;12.41;65.09
61568;BME280;47462;59.172;17.196;2022-09-30T15:25:13;100599.41;;;12.38;65.29
61568;BME280;47462;59.172;17.196;2022-09-30T15:27:40;100600.66;;;12.27;65.31
61568;BME280;47462;59.172;17.196;2022-09-30T15:32:37;100606.47;;;12.12;66.03
61568;BME280;47462;59.172;17.196;2022-09-30T15:35:03;100603.19;;;12.07;66.29
61568;BME280;47462;59.172;17.196;2022-09-30T15:37:29;100596.34;;;12.03;66.58
61568;BME280;47462;59.172;17.196;2022-09-30T15:39:57;100601.47;;;12.06;66.82
61568;BME280;47462;59.172;17.196;2022-09-30T15:42:58;100608.41;;;12.07;66.67
61568;BME280;47462;59.172;17.196;2022-09-30T15:45:32;100604.19;;;12.03;66.82